TimeMDT,TemperatureF,Dew PointF,Humidity,Sea Level PressureIn,VisibilityMPH,Wind Direction,Wind SpeedMPH,Gust SpeedMPH,PrecipitationIn,Events,Conditions,WindDirDegrees,DateUTC
12:53 AM,37.9,33.1,83,30.24,10.0,South,15.0,-,N/A,,Clear,190,2013-10-25 06:53:00
1:53 AM,36.0,33.1,89,30.23,10.0,South,10.4,-,N/A,,Clear,190,2013-10-25 07:53:00
2:53 AM,35.1,32.0,89,30.21,10.0,SSW,10.4,-,N/A,,Clear,200,2013-10-25 08:53:00
3:53 AM,35.1,32.0,89,30.20,10.0,SSW,11.5,-,N/A,,Clear,200,2013-10-25 09:53:00
4:53 AM,36.0,32.0,86,30.19,10.0,SSW,16.1,-,N/A,,Clear,210,2013-10-25 10:53:00
5:53 AM,36.0,32.0,86,30.19,10.0,SSW,16.1,-,N/A,,Clear,210,2013-10-25 11:53:00
6:53 AM,34.0,30.9,89,30.21,10.0,SW,11.5,-,N/A,,Clear,230,2013-10-25 12:53:00
7:53 AM,35.1,32.0,89,30.21,8.0,West,4.6,-,N/A,,Clear,280,2013-10-25 13:53:00
8:53 AM,42.1,37.0,82,30.19,10.0,WSW,5.8,-,N/A,,Clear,250,2013-10-25 14:53:00
9:53 AM,52.0,41.0,66,30.16,10.0,SW,10.4,-,N/A,,Clear,230,2013-10-25 15:53:00
10:53 AM,59.0,39.9,49,30.12,10.0,WNW,9.2,-,N/A,,Clear,290,2013-10-25 16:53:00
11:53 AM,64.9,41.0,42,30.09,10.0,Variable,3.5,-,N/A,,Clear,0,2013-10-25 17:53:00
12:53 PM,66.0,34.0,30,30.06,10.0,NNW,4.6,-,N/A,,Clear,330,2013-10-25 18:53:00
1:53 PM,68.0,37.0,32,30.04,10.0,NNE,6.9,-,N/A,,Clear,30,2013-10-25 19:53:00
2:53 PM,69.1,36.0,30,30.03,10.0,NNE,4.6,-,N/A,,Clear,20,2013-10-25 20:53:00
3:53 PM,68.0,34.0,28,30.02,10.0,North,5.8,-,N/A,,Clear,360,2013-10-25 21:53:00
4:53 PM,68.0,34.0,28,30.02,10.0,North,4.6,-,N/A,,Clear,360,2013-10-25 22:53:00
5:53 PM,57.0,35.1,44,30.06,10.0,North,4.6,-,N/A,,Clear,360,2013-10-25 23:53:00
6:53 PM,46.9,33.1,59,30.12,8.0,NW,3.5,-,N/A,,Clear,320,2013-10-26 00:53:00
7:53 PM,45.0,34.0,65,30.15,9.0,NW,10.4,-,N/A,,Clear,310,2013-10-26 01:53:00
8:53 PM,45.0,35.1,68,30.15,10.0,North,10.4,-,N/A,,Clear,350,2013-10-26 02:53:00
9:53 PM,43.0,34.0,71,30.14,10.0,NNW,11.5,-,N/A,,Clear,330,2013-10-26 03:53:00
10:53 PM,43.0,34.0,71,30.14,10.0,NNW,11.5,-,N/A,,Clear,330,2013-10-26 04:53:00
11:53 PM,45.0,34.0,65,30.14,10.0,North,10.4,-,N/A,,Clear,350,2013-10-26 05:53:00